Time;durP1;ratioP1;P1;durP2;ratioP2;P2;SDS_P1;SDS_P2;PMS_P1;PMS_P2;Temp;Humidity;BMP_temperature;BMP_pressure;BME280_temperature;BME280_humidity;BME280_pressure;Samples;Min_cycle;Max_cycle;Signal;HPM_P1;HPM_P2
2021/05/02 00:11:43;;;;;;;10.93;8.73;;;;;;;18.84;40.20;100480.28;30995256;28;20049;-54
2021/05/02 00:26:44;;;;;;;11.73;9.70;;;;;;;18.82;40.45;100464.63;30994121;28;20283;-55
2021/05/02 00:41:45;;;;;;;12.47;9.50;;;;;;;18.81;40.60;100446.34;30972206;28;20295;-55
2021/05/02 00:56:56;;;;;;;10.43;8.85;;;;;;;18.78;40.22;100436.06;30989674;28;20779;-52
2021/05/02 01:11:58;;;;;;;11.73;9.30;;;;;;;18.77;39.94;100455.47;30997394;28;20381;-53
2021/05/02 01:26:59;;;;;;;11.85;9.45;;;;;;;18.76;40.79;100437.97;31031838;28;20030;-56
2021/05/02 01:42:00;;;;;;;11.70;9.10;;;;;;;18.74;40.33;100453.09;31006232;28;20407;-56
2021/05/02 01:57:02;;;;;;;13.02;9.60;;;;;;;18.72;40.44;100441.88;31010995;28;20344;-56
2021/05/02 02:12:03;;;;;;;13.10;10.00;;;;;;;18.71;40.56;100427.03;31010464;28;20058;-55
2021/05/02 02:27:04;;;;;;;12.38;9.48;;;;;;;18.68;40.89;100419.41;31007774;28;20092;-56
2021/05/02 02:42:05;;;;;;;11.88;9.57;;;;;;;18.67;40.06;100412.47;31013984;28;20043;-56
2021/05/02 02:57:06;;;;;;;10.60;9.20;;;;;;;18.65;40.63;100409.16;30997096;28;20041;-55
2021/05/02 03:12:10;;;;;;;11.70;9.47;;;;;;;18.64;40.15;100424.09;30988605;28;20295;-54
2021/05/02 03:27:25;;;;;;;11.52;9.68;;;;;;;18.62;40.00;100426.03;30979619;28;20266;-53
2021/05/02 03:42:27;;;;;;;10.77;9.52;;;;;;;18.60;40.32;100425.38;30990038;28;20046;-56
2021/05/02 03:57:27;;;;;;;12.82;9.82;;;;;;;18.58;40.18;100435.19;30992043;28;20026;-58
2021/05/02 04:12:28;;;;;;;12.07;9.80;;;;;;;18.58;40.22;100435.19;30995483;28;20042;-55
2021/05/02 04:27:29;;;;;;;13.47;10.00;;;;;;;18.57;40.17;100430.88;30995199;28;20277;-55
2021/05/02 04:42:30;;;;;;;11.93;9.40;;;;;;;18.57;40.07;100433.50;30992180;28;20305;-55
2021/05/02 04:57:31;;;;;;;11.37;9.23;;;;;;;18.58;39.94;100419.41;30992515;28;20764;-52
2021/05/02 05:12:32;;;;;;;11.77;9.25;;;;;;;18.61;40.08;100413.84;30992249;28;20297;-56
2021/05/02 05:27:33;;;;;;;11.50;9.27;;;;;;;18.61;40.00;100414.69;30991105;28;20025;-55
2021/05/02 05:42:34;;;;;;;11.17;9.13;;;;;;;18.62;39.99;100424.25;30989228;28;20823;-51
2021/05/02 05:57:36;;;;;;;10.57;9.13;;;;;;;18.65;40.06;100430.22;30985832;28;20295;-53
2021/05/02 06:12:36;;;;;;;11.70;9.63;;;;;;;18.63;40.53;100457.50;31006207;28;20301;-53
2021/05/02 06:27:37;;;;;;;13.40;10.20;;;;;;;18.65;40.00;100469.72;30998708;28;20026;-53
2021/05/02 06:42:39;;;;;;;11.57;9.80;;;;;;;18.65;40.15;100475.81;30992358;28;20305;-53
2021/05/02 06:57:40;;;;;;;11.00;9.65;;;;;;;18.67;39.70;100488.81;30998633;28;20293;-57
2021/05/02 07:12:41;;;;;;;11.27;9.43;;;;;;;18.67;39.80;100492.31;31007443;28;20037;-56
2021/05/02 07:27:42;;;;;;;10.75;9.00;;;;;;;18.70;39.49;100505.19;30998187;28;20347;-53
2021/05/02 07:42:43;;;;;;;11.60;9.40;;;;;;;18.74;39.70;100508.41;30993471;28;20047;-57
2021/05/02 07:57:44;;;;;;;22.67;16.40;;;;;;;17.65;40.48;100515.84;30998485;28;20295;-59
2021/05/02 08:12:45;;;;;;;17.30;10.73;;;;;;;18.07;41.82;100515.84;30990409;28;20360;-61
2021/05/02 08:27:47;;;;;;;12.83;10.13;;;;;;;18.46;41.66;100520.47;31004894;28;20412;-60
2021/05/02 08:42:48;;;;;;;12.68;9.27;;;;;;;18.70;41.76;100522.78;30988163;28;20298;-58
2021/05/02 08:57:49;;;;;;;11.37;9.07;;;;;;;18.73;41.95;100527.78;30980448;28;20037;-58
2021/05/02 09:13:00;;;;;;;10.83;8.80;;;;;;;18.67;41.52;100521.25;30956617;28;20752;-59
2021/05/02 09:28:01;;;;;;;11.18;8.55;;;;;;;18.77;41.80;100516.88;30978476;28;20954;-62
2021/05/02 09:43:01;;;;;;;11.20;7.97;;;;;;;18.80;42.30;100527.13;30986484;28;20053;-55
2021/05/02 09:58:12;;;;;;;14.10;10.10;;;;;;;18.50;42.02;100535.88;30981678;28;20292;-55
2021/05/02 10:13:13;;;;;;;12.85;9.40;;;;;;;18.68;42.56;100536.06;30981418;28;20795;-56
2021/05/02 10:28:23;;;;;;;11.43;8.77;;;;;;;18.78;42.38;100542.25;30947278;28;20034;-57
2021/05/02 10:43:28;;;;;;;14.43;9.25;;;;;;;18.83;43.74;100544.47;30911278;28;20297;-56
2021/05/02 10:58:33;;;;;;;18.10;14.15;;;;;;;18.70;42.55;100559.63;30980994;28;20116;-53
2021/05/02 11:13:34;;;;;;;18.73;13.70;;;;;;;18.62;42.08;100581.34;30991983;28;20054;-57
2021/05/02 11:28:43;;;;;;;16.83;12.80;;;;;;;18.49;41.69;100575.50;30991398;28;20053;-55
2021/05/02 11:43:44;;;;;;;16.00;13.00;;;;;;;18.42;41.68;100589.16;30988084;28;20826;-57
2021/05/02 11:58:45;;;;;;;15.97;13.07;;;;;;;18.36;41.80;100588.84;30982701;28;20081;-56
2021/05/02 12:13:51;;;;;;;14.20;10.45;;;;;;;18.43;41.75;100576.84;30980846;28;20354;-57
2021/05/02 12:28:53;;;;;;;11.45;9.32;;;;;;;18.54;42.12;100583.81;30989800;28;20038;-56
2021/05/02 12:43:54;;;;;;;12.23;8.88;;;;;;;18.68;42.10;100582.63;30964298;28;20097;-57
2021/05/02 12:58:56;;;;;;;18.35;10.70;;;;;;;19.13;41.85;100595.44;30968290;28;20053;-54
2021/05/02 13:14:16;;;;;;;17.15;10.02;;;;;;;19.26;42.17;100614.44;30996512;28;20058;-58
2021/05/02 13:29:17;;;;;;;13.13;8.88;;;;;;;19.43;42.54;100623.50;31007594;28;20070;-59
2021/05/02 13:44:19;;;;;;;11.63;7.97;;;;;;;19.61;42.56;100627.13;30985793;28;20043;-60
2021/05/02 13:59:20;;;;;;;13.60;8.30;;;;;;;19.82;42.36;100645.47;30991030;28;20045;-59
2021/05/02 14:14:21;;;;;;;11.82;7.22;;;;;;;19.92;42.39;100642.84;30980801;28;20034;-58
2021/05/02 14:29:23;;;;;;;13.30;7.72;;;;;;;19.97;42.82;100651.16;31012581;28;20026;-52
2021/05/02 14:44:24;;;;;;;13.23;7.68;;;;;;;20.10;42.64;100653.53;31001453;28;20390;-55
2021/05/02 14:59:25;;;;;;;10.37;6.77;;;;;;;20.13;42.68;100650.59;31015542;28;20041;-57
2021/05/02 15:14:26;;;;;;;11.00;7.25;;;;;;;20.06;43.46;100662.69;30994876;28;20294;-60
2021/05/02 15:29:27;;;;;;;9.20;6.77;;;;;;;19.98;43.74;100688.94;31020197;28;20030;-59
2021/05/02 15:44:28;;;;;;;12.83;8.23;;;;;;;20.06;43.24;100689.06;30964855;28;20309;-58
2021/05/02 15:59:29;;;;;;;9.13;6.60;;;;;;;20.11;43.03;100684.19;30989503;28;20293;-60
2021/05/02 16:14:30;;;;;;;11.40;7.77;;;;;;;20.17;42.92;100680.19;30988830;28;20305;-57
2021/05/02 16:29:34;;;;;;;10.20;7.23;;;;;;;20.16;43.07;100682.00;30992828;28;20296;-57
2021/05/02 16:44:35;;;;;;;10.35;7.88;;;;;;;20.16;42.93;100687.28;30982470;28;20400;-58
2021/05/02 16:59:36;;;;;;;10.70;7.53;;;;;;;20.09;43.32;100710.75;30980561;28;20033;-59
2021/05/02 17:14:37;;;;;;;10.10;7.47;;;;;;;20.07;43.34;100732.97;30969543;28;20797;-60
2021/05/02 17:29:38;;;;;;;12.20;9.23;;;;;;;20.15;42.25;100701.41;30969489;28;20336;-59
2021/05/02 17:44:39;;;;;;;11.37;8.90;;;;;;;20.34;42.26;100703.25;30988555;28;20799;-56
2021/05/02 17:59:40;;;;;;;12.17;8.73;;;;;;;20.58;41.20;100749.50;30984443;28;20296;-58
2021/05/02 18:14:41;;;;;;;11.80;8.57;;;;;;;20.72;40.84;100733.22;30999537;28;20706;-61
2021/05/02 18:29:42;;;;;;;20.23;15.53;;;;;;;20.30;37.48;100741.44;30986323;28;20288;-57
2021/05/02 18:44:45;;;;;;;9.73;7.65;;;;;;;19.64;41.71;100769.22;31006315;28;20310;-60
2021/05/02 18:59:46;;;;;;;9.02;6.60;;;;;;;20.32;40.44;100771.16;30998363;28;20066;-59
2021/05/02 19:14:47;;;;;;;8.03;6.83;;;;;;;20.56;40.43;100791.03;30991953;28;20034;-55
2021/05/02 19:29:48;;;;;;;9.40;6.23;;;;;;;20.66;40.22;100799.78;30994752;28;20315;-58
2021/05/02 19:44:49;;;;;;;8.50;7.10;;;;;;;20.66;40.25;100800.66;30986746;28;20297;-55
2021/05/02 19:59:50;;;;;;;9.23;7.27;;;;;;;20.67;40.50;100820.78;30990026;28;20298;-57
2021/05/02 20:14:51;;;;;;;9.57;7.30;;;;;;;20.72;40.31;100828.28;30989214;28;20297;-57
2021/05/02 20:29:52;;;;;;;9.13;7.33;;;;;;;20.68;40.39;100840.97;30969205;28;20304;-59
2021/05/02 20:44:53;;;;;;;8.10;5.90;;;;;;;20.52;39.32;100856.47;30976510;28;20313;-57
2021/05/02 20:59:54;;;;;;;9.15;4.80;;;;;;;20.26;39.02;100857.00;30981840;28;20355;-56
2021/05/02 21:14:55;;;;;;;7.47;4.80;;;;;;;20.04;39.64;100868.63;30957622;28;20038;-56
2021/05/02 21:29:56;;;;;;;6.75;4.82;;;;;;;19.87;39.51;100870.09;30970288;28;20313;-59
2021/05/02 21:44:57;;;;;;;6.87;4.37;;;;;;;19.34;41.17;100879.94;30992384;28;20046;-56
2021/05/02 21:59:58;;;;;;;6.30;3.53;;;;;;;17.76;40.10;100901.41;31004491;28;20318;-58
2021/05/02 22:14:59;;;;;;;7.27;3.87;;;;;;;18.53;42.91;100909.38;30999270;28;20045;-59
2021/05/02 22:30:00;;;;;;;10.00;4.30;;;;;;;18.83;42.61;100911.34;31002244;28;20281;-55
2021/05/02 22:45:01;;;;;;;9.43;4.80;;;;;;;18.92;42.73;100930.81;31041746;28;20300;-58
2021/05/02 23:00:05;;;;;;;8.30;4.85;;;;;;;18.97;42.73;100938.34;31000636;28;20320;-57
2021/05/02 23:15:06;;;;;;;7.22;4.63;;;;;;;18.98;42.84;100940.84;31002655;28;20632;-55
2021/05/02 23:30:08;;;;;;;7.88;5.10;;;;;;;18.99;42.89;100946.97;31000218;28;20463;-52
2021/05/02 23:45:09;;;;;;;8.00;4.70;;;;;;;19.00;43.06;100959.16;30981110;28;20050;-56
